Time;durP1;ratioP1;P1;durP2;ratioP2;P2;SDS_P1;SDS_P2;PMS_P1;PMS_P2;Temp;Humidity;BMP_temperature;BMP_pressure;BME280_temperature;BME280_humidity;BME280_pressure;Samples;Min_cycle;Max_cycle;Signal;HPM_P1;HPM_P2
2022/09/22 00:00:57;;;;;;;4.25;2.40;;;;;;;4.02;98.22;98039.44;5067662;28;20151;-58
2022/09/22 00:03:24;;;;;;;5.07;2.65;;;;;;;4.02;98.17;98038.63;5068372;28;20048;-59
2022/09/22 00:06:03;;;;;;;5.03;2.60;;;;;;;3.91;98.79;98039.97;5064745;28;20115;-58
2022/09/22 00:08:31;;;;;;;4.82;2.63;;;;;;;3.92;98.90;98044.31;5066937;28;20047;-60
2022/09/22 00:11:16;;;;;;;3.67;2.03;;;;;;;3.92;98.07;98044.31;5068596;28;20044;-58
2022/09/22 00:13:52;;;;;;;5.65;2.28;;;;;;;3.80;99.25;98037.81;5073695;28;20503;-59
2022/09/22 00:16:22;;;;;;;6.55;2.33;;;;;;;3.77;98.89;98041.69;5067683;28;20055;-60
2022/09/22 00:18:49;;;;;;;3.90;2.30;;;;;;;3.83;99.23;98043.59;5067705;28;20507;-58
2022/09/22 00:21:18;;;;;;;5.22;2.25;;;;;;;3.88;98.41;98032.31;5067428;28;20042;-59
2022/09/22 00:23:46;;;;;;;6.15;2.25;;;;;;;3.71;98.11;98031.72;5067952;28;20197;-59
2022/09/22 00:26:19;;;;;;;4.20;2.33;;;;;;;3.73;98.38;98027.84;5068195;28;20506;-59
2022/09/22 00:28:46;;;;;;;5.72;2.50;;;;;;;3.77;99.50;98021.06;5067453;28;20045;-58
2022/09/22 00:31:19;;;;;;;4.38;2.65;;;;;;;3.73;99.53;98019.78;5067667;28;20052;-60
2022/09/22 00:33:46;;;;;;;9.25;2.95;;;;;;;3.86;98.54;98016.44;5071060;28;20555;-58
2022/09/22 00:36:14;;;;;;;5.78;3.08;;;;;;;3.85;98.80;98016.63;5067584;28;20754;-59
2022/09/22 00:38:41;;;;;;;5.03;2.60;;;;;;;3.84;98.94;98014.97;5067565;28;20517;-59
2022/09/22 00:41:15;;;;;;;3.85;2.50;;;;;;;3.89;98.44;98012.53;5066815;28;20154;-58
2022/09/22 00:43:45;;;;;;;4.22;2.70;;;;;;;3.77;98.63;98010.34;5059404;28;20062;-57
2022/09/22 00:46:17;;;;;;;2.80;2.00;;;;;;;3.84;98.27;98004.25;5067101;28;20124;-59
2022/09/22 00:48:50;;;;;;;4.65;2.42;;;;;;;3.79;98.37;98004.00;5067642;28;20603;-57
2022/09/22 00:51:21;;;;;;;7.07;2.47;;;;;;;3.67;98.74;98001.84;5047360;28;20066;-59
2022/09/22 00:53:49;;;;;;;4.00;2.15;;;;;;;3.68;98.53;98006.16;5058726;28;20047;-59
2022/09/22 00:56:22;;;;;;;3.30;2.22;;;;;;;3.78;97.81;98008.53;5067013;28;20127;-57
2022/09/22 00:58:56;;;;;;;4.07;2.10;;;;;;;3.92;97.20;98005.94;5071477;28;20036;-59
2022/09/22 01:01:22;;;;;;;4.47;2.38;;;;;;;3.98;96.62;97997.16;5066077;28;20115;-57
2022/09/22 01:03:49;;;;;;;6.53;2.33;;;;;;;3.79;97.58;98007.50;5066741;28;20040;-59
2022/09/22 01:06:22;;;;;;;3.20;1.83;;;;;;;3.38;99.26;98001.75;5061886;28;20083;-58
2022/09/22 01:08:49;;;;;;;4.78;2.28;;;;;;;2.98;100.00;97999.47;5067395;28;20119;-58
2022/09/22 01:11:19;;;;;;;4.10;2.30;;;;;;;2.94;100.00;98006.19;5066010;28;20709;-57
2022/09/22 01:14:33;;;;;;;4.53;2.30;;;;;;;2.88;100.00;98008.78;5065248;28;20048;-58
2022/09/22 01:17:40;;;;;;;4.97;2.55;;;;;;;2.93;100.00;98007.22;5052701;28;20040;-59
2022/09/22 01:20:37;;;;;;;3.85;2.50;;;;;;;2.67;100.00;98005.88;5065882;28;20120;-57
2022/09/22 01:23:16;;;;;;;4.93;2.45;;;;;;;2.84;100.00;98000.31;5067577;28;20099;-57
2022/09/22 01:26:01;;;;;;;4.68;2.83;;;;;;;2.89;100.00;98007.78;5070315;28;20119;-59
2022/09/22 01:28:55;;;;;;;9.98;3.15;;;;;;;2.98;100.00;98007.47;5070328;28;20132;-57
2022/09/22 01:31:39;;;;;;;5.53;2.85;;;;;;;3.10;100.00;98010.50;5066272;28;20064;-60
2022/09/22 01:34:22;;;;;;;5.95;2.53;;;;;;;3.33;100.00;98009.53;5042573;28;20090;-58
2022/09/22 01:36:54;;;;;;;4.30;2.17;;;;;;;3.48;100.00;98003.28;5057359;28;20124;-59
2022/09/22 01:39:33;;;;;;;4.85;2.85;;;;;;;3.35;100.00;98006.66;5066721;28;20051;-58
2022/09/22 01:41:59;;;;;;;4.30;2.25;;;;;;;3.28;100.00;97995.88;5068425;28;20123;-60
2022/09/22 01:44:48;;;;;;;5.22;2.78;;;;;;;3.26;100.00;97997.91;5066397;28;20040;-58
2022/09/22 01:47:21;;;;;;;5.18;2.40;;;;;;;3.17;100.00;98002.53;5065008;28;20132;-58
2022/09/22 01:49:52;;;;;;;8.23;2.60;;;;;;;2.97;100.00;98003.16;5066684;28;20036;-60
2022/09/22 01:52:27;;;;;;;5.32;2.53;;;;;;;2.85;100.00;98012.69;5068458;28;20119;-59
2022/09/22 01:54:57;;;;;;;6.70;2.72;;;;;;;2.70;100.00;98015.34;5046150;28;20047;-60
2022/09/22 01:57:37;;;;;;;4.85;2.65;;;;;;;2.68;100.00;98006.69;5052526;28;20064;-59
2022/09/22 02:00:07;;;;;;;4.65;2.72;;;;;;;2.73;100.00;98006.97;5046627;28;20667;-60
2022/09/22 02:02:52;;;;;;;5.65;3.08;;;;;;;2.68;100.00;98010.19;5054146;28;20491;-59
2022/09/22 02:05:27;;;;;;;4.90;2.88;;;;;;;2.61;100.00;98011.94;5065967;28;20397;-57
2022/09/22 02:07:55;;;;;;;5.28;3.08;;;;;;;2.61;100.00;98011.94;5055985;28;20071;-60
2022/09/22 02:10:30;;;;;;;4.63;2.80;;;;;;;2.60;100.00;98004.94;5066320;28;20116;-60
2022/09/22 02:12:56;;;;;;;4.70;2.60;;;;;;;2.74;100.00;98000.59;5067230;28;20068;-57
2022/09/22 02:18:17;;;;;;;10.10;2.80;;;;;;;2.85;100.00;98001.97;5066774;28;20044;-60
2022/09/22 02:20:44;;;;;;;4.50;2.80;;;;;;;3.01;100.00;98000.94;5070048;28;20582;-57
2022/09/22 02:23:10;;;;;;;5.75;2.53;;;;;;;3.11;100.00;97997.97;5065684;28;20045;-57
2022/09/22 02:25:39;;;;;;;4.97;2.40;;;;;;;2.96;100.00;97996.16;5066135;28;20036;-58
2022/09/22 02:28:06;;;;;;;5.20;2.45;;;;;;;3.01;100.00;98000.09;5065980;28;20173;-58
2022/09/22 02:30:33;;;;;;;4.15;2.30;;;;;;;2.99;100.00;97995.75;5064244;28;20054;-60
2022/09/22 02:33:01;;;;;;;4.88;2.47;;;;;;;2.94;100.00;97989.31;5064979;28;20041;-59
2022/09/22 02:35:29;;;;;;;4.10;2.50;;;;;;;3.02;100.00;97988.38;5065203;28;20039;-59
2022/09/22 02:38:01;;;;;;;7.05;2.50;;;;;;;2.85;100.00;97981.38;5066123;28;20127;-60
2022/09/22 02:40:37;;;;;;;5.13;2.67;;;;;;;2.71;100.00;97985.75;5071027;28;20118;-58
2022/09/22 02:43:13;;;;;;;5.05;3.05;;;;;;;2.65;100.00;97981.16;5070232;28;20049;-59
2022/09/22 02:46:01;;;;;;;4.13;2.53;;;;;;;2.61;100.00;97979.84;5066199;28;20121;-60
2022/09/22 02:48:34;;;;;;;5.28;2.78;;;;;;;2.53;100.00;97980.78;5065995;28;20044;-60
2022/09/22 02:51:01;;;;;;;5.13;3.00;;;;;;;2.50;100.00;97985.69;5065876;28;20037;-60
2022/09/22 02:53:28;;;;;;;6.72;3.47;;;;;;;2.47;100.00;97992.22;5075275;28;20051;-59
2022/09/22 02:55:56;;;;;;;4.80;3.10;;;;;;;2.43;100.00;97986.41;5085962;28;20042;-59
2022/09/22 02:58:22;;;;;;;5.95;3.45;;;;;;;2.38;100.00;97983.47;5073192;28;20040;-59
2022/09/22 03:00:49;;;;;;;6.50;3.38;;;;;;;2.43;100.00;97982.94;5065396;28;20044;-60
2022/09/22 03:03:15;;;;;;;5.32;3.10;;;;;;;2.39;100.00;97977.09;5065824;28;20040;-59
2022/09/22 03:05:42;;;;;;;5.65;3.50;;;;;;;2.38;100.00;97978.13;5069347;28;20071;-58
2022/09/22 03:08:08;;;;;;;6.75;3.20;;;;;;;2.36;100.00;97979.31;5064952;28;20092;-58
2022/09/22 03:10:34;;;;;;;6.97;3.13;;;;;;;2.30;100.00;97984.38;5065790;28;20533;-58
2022/09/22 03:13:01;;;;;;;5.25;3.17;;;;;;;2.31;100.00;97977.19;5070220;28;20146;-59
2022/09/22 03:15:43;;;;;;;9.40;3.30;;;;;;;2.38;100.00;97979.94;5068084;28;20036;-60
2022/09/22 03:18:09;;;;;;;4.32;2.60;;;;;;;2.46;100.00;97980.69;5069273;28;20040;-59
2022/09/22 03:20:36;;;;;;;4.53;2.83;;;;;;;2.46;100.00;97979.84;5068958;28;20102;-57
2022/09/22 03:23:02;;;;;;;5.57;2.90;;;;;;;2.59;100.00;97982.72;5069265;28;20040;-59
2022/09/22 03:25:29;;;;;;;4.55;2.92;;;;;;;2.53;100.00;97966.59;5069190;28;20423;-58
2022/09/22 03:27:55;;;;;;;6.45;3.08;;;;;;;2.36;100.00;97976.66;5069049;28;20507;-59
2022/09/22 03:30:21;;;;;;;4.38;2.60;;;;;;;2.32;100.00;97973.53;5072978;28;20059;-59
2022/09/22 03:32:48;;;;;;;5.25;2.60;;;;;;;2.48;100.00;97969.81;5072052;28;20047;-59
2022/09/22 03:35:15;;;;;;;6.72;3.13;;;;;;;2.43;100.00;97975.72;5069185;28;20133;-59
2022/09/22 03:37:41;;;;;;;5.22;2.80;;;;;;;2.49;100.00;97970.63;5068906;28;20449;-58
2022/09/22 03:40:08;;;;;;;4.78;2.97;;;;;;;2.38;100.00;97975.44;5069473;28;20050;-58
2022/09/22 03:42:34;;;;;;;6.70;3.25;;;;;;;2.48;100.00;97975.19;5079578;28;20101;-58
2022/09/22 03:45:03;;;;;;;5.43;2.97;;;;;;;2.43;100.00;97975.72;5089110;28;20123;-59
2022/09/22 03:47:30;;;;;;;4.57;2.75;;;;;;;2.62;100.00;97970.84;5069140;28;20072;-58
2022/09/22 03:49:57;;;;;;;5.38;3.40;;;;;;;2.54;100.00;97973.63;5068361;28;20048;-60
2022/09/22 03:52:23;;;;;;;4.32;2.55;;;;;;;2.62;100.00;97970.00;5068395;28;20040;-60
2022/09/22 03:54:51;;;;;;;5.03;2.80;;;;;;;2.60;100.00;97964.84;5068954;28;20066;-59
2022/09/22 03:57:17;;;;;;;5.07;2.88;;;;;;;2.65;100.00;97966.97;5070313;28;20312;-59
2022/09/22 03:59:43;;;;;;;4.50;2.92;;;;;;;2.52;100.00;97962.25;5069367;28;20128;-57
2022/09/22 04:02:10;;;;;;;6.53;3.10;;;;;;;2.44;100.00;97964.00;5067294;28;20068;-59
2022/09/22 04:04:36;;;;;;;7.95;2.90;;;;;;;2.37;100.00;97956.91;5068359;28;20033;-59
2022/09/22 04:07:03;;;;;;;4.82;2.55;;;;;;;2.31;100.00;97962.00;5068638;28;20446;-59
2022/09/22 04:09:32;;;;;;;5.15;2.78;;;;;;;2.26;100.00;97966.22;5065029;28;20466;-59
2022/09/22 04:11:59;;;;;;;4.93;3.03;;;;;;;2.24;100.00;97965.59;5065288;28;20038;-58
2022/09/22 04:14:26;;;;;;;4.70;2.92;;;;;;;2.30;100.00;97962.16;5068078;28;20044;-57
2022/09/22 04:16:53;;;;;;;4.57;3.00;;;;;;;2.18;100.00;97962.63;5068228;28;20032;-59
2022/09/22 04:19:19;;;;;;;5.60;3.13;;;;;;;2.12;100.00;97965.19;5067875;28;20052;-59
2022/09/22 04:21:46;;;;;;;5.60;3.03;;;;;;;2.08;100.00;97957.56;5074337;28;20278;-59
2022/09/22 04:24:12;;;;;;;4.97;3.17;;;;;;;2.08;100.00;97956.72;5068442;28;20676;-57
2022/09/22 04:26:39;;;;;;;5.15;3.08;;;;;;;2.06;100.00;97956.91;5066767;28;20033;-59
2022/09/22 04:29:25;;;;;;;4.70;2.75;;;;;;;2.05;100.00;97954.41;5068681;28;20454;-55
2022/09/22 04:31:51;;;;;;;5.38;3.22;;;;;;;2.02;100.00;97958.28;5067542;28;20471;-59
2022/09/22 04:34:18;;;;;;;5.68;3.28;;;;;;;2.14;100.00;97960.50;5067784;28;20396;-60
2022/09/22 04:36:44;;;;;;;6.25;3.40;;;;;;;2.14;100.00;97958.66;5068122;28;20033;-57
2022/09/22 04:39:11;;;;;;;5.45;2.85;;;;;;;2.16;100.00;97963.81;5067870;28;20115;-59
2022/09/22 04:41:37;;;;;;;7.43;3.20;;;;;;;2.20;100.00;97962.44;5068022;28;20075;-59
2022/09/22 04:44:04;;;;;;;5.50;3.50;;;;;;;2.15;100.00;97960.34;5066765;28;20136;-57
2022/09/22 04:46:30;;;;;;;5.28;3.28;;;;;;;2.18;100.00;97959.94;5074031;28;20059;-58
2022/09/22 04:48:57;;;;;;;5.43;3.50;;;;;;;2.18;100.00;97962.63;5067860;28;20051;-59
2022/09/22 04:51:23;;;;;;;6.43;3.40;;;;;;;1.97;100.00;97962.50;5065965;28;20123;-58
2022/09/22 04:53:50;;;;;;;8.40;3.85;;;;;;;1.97;100.00;97958.00;5067294;28;20140;-57
2022/09/22 04:56:16;;;;;;;6.22;3.60;;;;;;;2.00;100.00;97956.81;5067406;28;20123;-58
2022/09/22 04:58:43;;;;;;;7.03;3.47;;;;;;;2.02;100.00;97960.94;5066502;28;20044;-59
2022/09/22 05:01:10;;;;;;;8.10;4.53;;;;;;;2.00;100.00;97959.47;5072498;28;20040;-58
2022/09/22 05:03:37;;;;;;;5.90;3.63;;;;;;;2.06;100.00;97959.56;5063503;28;20534;-59
2022/09/22 05:06:05;;;;;;;7.75;3.88;;;;;;;2.05;100.00;97963.25;5066205;28;20066;-58
2022/09/22 05:08:32;;;;;;;7.05;3.83;;;;;;;2.14;100.00;97966.66;5070646;28;20414;-59
2022/09/22 05:10:58;;;;;;;5.47;3.35;;;;;;;2.20;100.00;97965.09;5063393;28;20131;-60
2022/09/22 05:13:25;;;;;;;6.03;3.33;;;;;;;2.30;100.00;97960.34;5068296;28;20050;-60
2022/09/22 05:15:51;;;;;;;9.55;3.53;;;;;;;2.36;100.00;97964.09;5065937;28;20085;-59
2022/09/22 05:18:18;;;;;;;5.25;2.88;;;;;;;2.54;100.00;97965.59;5065823;28;20094;-59
2022/09/22 05:20:44;;;;;;;6.00;3.25;;;;;;;2.51;100.00;97968.63;5072178;28;20046;-58
2022/09/22 05:23:11;;;;;;;6.82;4.05;;;;;;;2.25;100.00;97964.56;5066652;28;20083;-60
2022/09/22 05:25:38;;;;;;;6.25;4.30;;;;;;;2.12;100.00;97976.72;5069164;28;20071;-60
2022/09/22 05:28:04;;;;;;;5.95;3.33;;;;;;;2.10;100.00;97970.72;5072731;28;20094;-58
2022/09/22 05:30:31;;;;;;;5.03;3.38;;;;;;;2.13;100.00;97973.03;5082841;28;20052;-58
2022/09/22 05:32:57;;;;;;;7.80;3.67;;;;;;;2.13;100.00;97981.03;5074871;28;20590;-59
2022/09/22 05:35:24;;;;;;;13.48;8.48;;;;;;;2.01;100.00;97974.47;5070878;28;20047;-60
2022/09/22 05:37:52;;;;;;;9.80;5.55;;;;;;;2.06;100.00;97978.28;5077028;28;20051;-60
2022/09/22 05:40:22;;;;;;;11.00;6.65;;;;;;;2.14;100.00;97977.34;5082699;28;20043;-65
2022/09/22 05:42:50;;;;;;;10.65;6.45;;;;;;;2.11;100.00;97972.41;5077599;28;20040;-64
2022/09/22 05:45:17;;;;;;;9.77;5.43;;;;;;;2.18;100.00;97975.97;5074165;28;20152;-64
2022/09/22 05:47:44;;;;;;;13.82;8.43;;;;;;;2.26;100.00;97980.44;5071536;28;20132;-63
2022/09/22 05:50:13;;;;;;;9.10;5.03;;;;;;;2.34;100.00;97984.84;5078224;28;20086;-63
2022/09/22 05:52:39;;;;;;;8.43;5.10;;;;;;;2.42;100.00;97979.41;5069296;28;20042;-62
2022/09/22 05:55:07;;;;;;;10.95;6.55;;;;;;;2.51;100.00;97985.47;5073028;28;20124;-61
2022/09/22 05:57:33;;;;;;;12.90;7.10;;;;;;;2.53;100.00;97985.28;5064514;28;20132;-62
2022/09/22 06:00:00;;;;;;;8.50;4.60;;;;;;;2.67;100.00;97991.66;5079144;28;20044;-63
2022/09/22 06:02:37;;;;;;;6.97;4.55;;;;;;;2.67;100.00;97991.66;5070427;28;20495;-62
2022/09/22 06:05:04;;;;;;;8.50;4.18;;;;;;;2.75;100.00;97982.69;5062606;28;20568;-64
2022/09/22 06:07:30;;;;;;;7.25;4.82;;;;;;;2.80;100.00;97983.81;5072841;28;20515;-61
2022/09/22 06:09:57;;;;;;;8.10;4.85;;;;;;;2.88;100.00;97988.25;5068253;28;20093;-61
2022/09/22 06:12:23;;;;;;;9.95;7.00;;;;;;;2.95;100.00;97985.63;5065562;28;20044;-61
2022/09/22 06:14:49;;;;;;;13.98;6.70;;;;;;;2.93;100.00;97988.50;5057726;28;20055;-64
2022/09/22 06:17:16;;;;;;;15.80;11.00;;;;;;;3.07;100.00;97984.13;5077208;28;20673;-63
2022/09/22 06:19:49;;;;;;;11.88;7.75;;;;;;;3.06;100.00;97982.47;5064367;28;20115;-62
2022/09/22 06:22:17;;;;;;;9.68;5.70;;;;;;;3.18;100.00;97982.81;5082663;28;20048;-61
2022/09/22 06:24:43;;;;;;;10.50;7.03;;;;;;;3.27;100.00;97978.16;5071576;28;20058;-62
2022/09/22 06:27:10;;;;;;;12.07;6.85;;;;;;;3.36;100.00;97981.56;5070180;28;20518;-65
2022/09/22 06:29:36;;;;;;;7.68;5.25;;;;;;;3.51;100.00;97978.81;5074247;28;20477;-61
2022/09/22 06:32:06;;;;;;;10.35;7.35;;;;;;;3.68;100.00;97975.88;5069723;28;20553;-62
2022/09/22 06:34:36;;;;;;;6.50;4.22;;;;;;;3.82;100.00;97976.81;5065667;28;20504;-62
2022/09/22 06:37:07;;;;;;;10.93;4.60;;;;;;;3.99;100.00;97972.84;5066351;28;20037;-61
2022/09/22 06:39:36;;;;;;;9.07;6.13;;;;;;;4.14;100.00;97980.78;5066058;28;20725;-61
2022/09/22 06:42:04;;;;;;;7.50;4.55;;;;;;;4.26;100.00;97969.50;5072417;28;20461;-62
2022/09/22 06:44:31;;;;;;;7.63;4.70;;;;;;;4.46;100.00;97974.19;5064938;28;20507;-61
2022/09/22 06:46:58;;;;;;;7.47;4.68;;;;;;;4.61;100.00;97974.88;5065563;28;20123;-61
2022/09/22 06:49:25;;;;;;;8.85;4.88;;;;;;;4.77;100.00;97976.41;5068146;28;20045;-63
2022/09/22 06:51:51;;;;;;;8.38;4.75;;;;;;;4.97;100.00;97977.53;5069052;28;20052;-62
2022/09/22 06:54:18;;;;;;;6.95;4.47;;;;;;;5.10;100.00;97974.03;5086073;28;20123;-61
2022/09/22 06:56:46;;;;;;;8.07;4.97;;;;;;;5.26;100.00;97972.84;5081247;28;20103;-65
2022/09/22 06:59:13;;;;;;;21.98;13.15;;;;;;;5.41;99.25;97980.72;5080117;28;20108;-63
2022/09/22 07:01:40;;;;;;;7.70;5.32;;;;;;;5.53;98.58;97978.28;5081160;28;20474;-61
2022/09/22 07:04:08;;;;;;;6.82;4.47;;;;;;;5.66;98.37;97970.25;5069219;28;20052;-63
2022/09/22 07:06:39;;;;;;;7.38;4.88;;;;;;;5.80;98.21;97968.41;5069494;28;20666;-63
2022/09/22 07:09:07;;;;;;;10.20;4.78;;;;;;;5.93;98.98;97959.50;5069874;28;20075;-63
2022/09/22 07:11:34;;;;;;;10.75;5.07;;;;;;;6.06;98.36;97972.16;5071484;28;20120;-63
2022/09/22 07:14:07;;;;;;;17.30;9.98;;;;;;;6.15;98.24;97970.06;5068231;28;20511;-63
2022/09/22 07:16:34;;;;;;;11.35;6.47;;;;;;;6.28;97.85;97965.69;5069562;28;20040;-66
2022/09/22 07:19:03;;;;;;;7.90;4.80;;;;;;;6.40;97.84;97964.03;5066235;28;20099;-64
2022/09/22 07:21:34;;;;;;;8.32;4.50;;;;;;;6.63;97.40;97958.16;5073233;28;20055;-63
2022/09/22 07:24:01;;;;;;;7.20;4.13;;;;;;;6.85;95.75;97963.28;5066499;28;20048;-62
2022/09/22 07:26:31;;;;;;;5.90;3.85;;;;;;;7.03;94.70;97959.88;5072202;28;20046;-61
2022/09/22 07:29:03;;;;;;;5.47;3.40;;;;;;;7.22;92.51;97961.88;5073348;28;20108;-62
2022/09/22 07:31:30;;;;;;;4.82;2.90;;;;;;;7.37;91.46;97957.00;5060073;28;20050;-61
2022/09/22 07:34:01;;;;;;;5.95;3.08;;;;;;;7.50;90.46;97961.50;5074017;28;20044;-61
2022/09/22 07:36:29;;;;;;;7.85;2.95;;;;;;;7.68;89.83;97955.34;5081101;28;20127;-62
2022/09/22 07:39:01;;;;;;;5.13;2.85;;;;;;;7.92;87.67;97966.38;5067804;28;20062;-62
2022/09/22 07:41:29;;;;;;;5.22;2.72;;;;;;;8.09;86.76;97959.59;5067888;28;20033;-62
2022/09/22 07:46:44;;;;;;;5.70;2.78;;;;;;;8.41;85.16;97963.00;5068525;28;20131;-62
2022/09/22 07:49:11;;;;;;;6.88;3.15;;;;;;;8.60;84.85;97960.38;5068628;28;20503;-62
2022/09/22 07:51:37;;;;;;;5.47;2.97;;;;;;;8.76;84.18;97958.94;5068675;28;20049;-62
2022/09/22 07:54:07;;;;;;;4.55;2.60;;;;;;;8.87;83.14;97951.13;5070407;28;20561;-62
2022/09/22 07:56:35;;;;;;;4.78;2.40;;;;;;;8.93;81.95;97963.72;5068136;28;20563;-64
2022/09/22 07:59:09;;;;;;;4.38;2.40;;;;;;;8.99;81.79;97960.13;5067709;28;20639;-61
2022/09/22 08:01:43;;;;;;;5.20;2.60;;;;;;;9.11;81.48;97954.78;5066651;28;20044;-62
2022/09/22 08:04:14;;;;;;;6.43;2.83;;;;;;;9.20;82.04;97960.69;5067025;28;20048;-64
2022/09/22 08:06:45;;;;;;;4.40;2.80;;;;;;;9.37;82.34;97945.47;5067484;28;20427;-63
2022/09/22 08:09:12;;;;;;;5.43;2.50;;;;;;;9.44;80.05;97947.28;5068371;28;20052;-63
2022/09/22 08:11:39;;;;;;;4.22;2.63;;;;;;;9.53;80.28;97955.84;5071639;28;20042;-64
2022/09/22 08:14:10;;;;;;;6.20;2.47;;;;;;;9.58;79.08;97945.19;5069813;28;20119;-67
2022/09/22 08:16:38;;;;;;;3.72;1.92;;;;;;;9.61;78.92;97944.72;5068390;28;20037;-64
2022/09/22 08:19:11;;;;;;;4.07;2.30;;;;;;;9.67;79.07;97943.81;5068196;28;20072;-64
2022/09/22 08:21:42;;;;;;;5.90;2.50;;;;;;;9.79;77.94;97933.00;5074107;28;20136;-63
2022/09/22 08:24:20;;;;;;;5.60;2.97;;;;;;;9.89;78.12;97940.53;5066891;28;20068;-61
2022/09/22 08:26:47;;;;;;;;;;;;;;;9.92;77.89;97933.84;5066063;28;20570;-57
2022/09/22 08:29:14;;;;;;;6.30;2.35;;;;;;;10.01;77.22;97933.28;5072624;28;19920;-62
2022/09/22 08:31:41;;;;;;;7.20;2.80;;;;;;;10.08;77.57;97937.72;5073358;28;20044;-61
2022/09/22 08:34:08;;;;;;;4.40;2.40;;;;;;;10.15;77.26;97938.44;5072394;28;20051;-64
2022/09/22 08:36:36;;;;;;;5.82;2.83;;;;;;;10.22;75.95;97938.31;5071574;28;20151;-63
2022/09/22 08:39:03;;;;;;;5.68;2.30;;;;;;;10.23;75.86;97937.25;5071494;28;20059;-63
2022/09/22 08:41:37;;;;;;;5.88;2.67;;;;;;;10.25;76.82;97938.66;5067775;28;20074;-62
2022/09/22 08:44:08;;;;;;;5.35;2.78;;;;;;;10.33;76.65;97939.38;5067255;28;20044;-67
2022/09/22 08:46:40;;;;;;;10.75;3.30;;;;;;;10.42;75.75;97940.66;5066820;28;20512;-65
2022/09/22 08:52:29;;;;;;;10.15;3.08;;;;;;;10.46;75.82;97947.28;5065205;28;20056;-61
2022/09/22 08:54:58;;;;;;;8.25;3.90;;;;;;;10.51;75.14;97939.25;5063311;28;20041;-62
2022/09/22 08:57:55;;;;;;;9.73;4.35;;;;;;;10.64;74.73;97940.06;5066150;28;20489;-62
2022/09/22 09:00:24;;;;;;;8.75;4.25;;;;;;;10.66;73.65;97941.47;5063015;28;20139;-61
2022/09/22 09:03:26;;;;;;;6.78;3.30;;;;;;;10.65;73.56;97941.75;5070209;28;20119;-61
2022/09/22 09:06:03;;;;;;;7.55;3.38;;;;;;;10.77;74.33;97941.72;5073600;28;20097;-62
2022/09/22 09:08:54;;;;;;;5.78;3.28;;;;;;;10.83;73.68;97943.44;5067222;28;20037;-61
2022/09/22 09:11:37;;;;;;;6.22;3.40;;;;;;;10.87;74.55;97932.97;5064083;28;20093;-62
2022/09/22 09:14:22;;;;;;;7.70;3.55;;;;;;;11.00;73.43;97943.53;5055872;28;20123;-63
2022/09/22 09:16:56;;;;;;;6.85;4.03;;;;;;;11.12;72.38;97943.47;5064445;28;20519;-66
2022/09/22 09:19:28;;;;;;;8.02;3.75;;;;;;;11.16;72.10;97941.94;5073928;28;20076;-61
2022/09/22 09:22:00;;;;;;;8.07;3.67;;;;;;;11.22;71.97;97939.31;5065275;28;20041;-62
2022/09/22 09:24:33;;;;;;;6.65;3.25;;;;;;;11.36;70.38;97943.41;5064725;28;20562;-62
2022/09/22 09:27:23;;;;;;;14.48;5.57;;;;;;;11.44;70.57;97934.88;5058001;28;20051;-62
2022/09/22 09:30:16;;;;;;;12.98;5.38;;;;;;;11.49;69.54;97930.56;5079688;28;20127;-61
2022/09/22 09:32:56;;;;;;;7.97;3.20;;;;;;;11.53;69.29;97932.56;5058415;28;20091;-62
2022/09/22 09:35:34;;;;;;;6.97;3.88;;;;;;;11.60;68.89;97931.59;5064727;28;20135;-62
2022/09/22 09:38:10;;;;;;;5.18;3.28;;;;;;;11.68;68.90;97928.47;5065226;28;20658;-62
2022/09/22 09:40:37;;;;;;;5.63;2.58;;;;;;;11.77;68.34;97937.03;5063645;28;20131;-60
2022/09/22 09:43:04;;;;;;;7.75;2.90;;;;;;;11.91;67.24;97926.69;5071524;28;20044;-65
2022/09/22 09:45:43;;;;;;;6.05;2.90;;;;;;;11.95;66.27;97922.41;5064246;28;20135;-62
2022/09/22 09:48:26;;;;;;;4.88;2.33;;;;;;;12.01;66.00;97926.84;5067986;28;20501;-62
2022/09/22 09:50:53;;;;;;;6.15;2.47;;;;;;;12.03;65.41;97930.13;5068108;28;20139;-62
2022/09/22 09:53:38;;;;;;;4.90;2.28;;;;;;;12.03;64.71;97922.00;5067371;28;20545;-62
2022/09/22 09:56:23;;;;;;;3.92;2.08;;;;;;;12.12;64.51;97922.41;5066996;28;20037;-60
2022/09/22 10:01:46;;;;;;;5.13;2.20;;;;;;;12.33;63.70;97922.72;5073278;28;20048;-66
2022/09/22 10:04:34;;;;;;;6.00;2.20;;;;;;;12.35;62.53;97924.09;5083038;28;20550;-63
2022/09/22 10:07:18;;;;;;;4.03;2.00;;;;;;;12.31;62.76;97917.53;5070176;28;20124;-66
2022/09/22 10:09:48;;;;;;;5.38;2.40;;;;;;;12.45;62.19;97926.16;5062288;28;20495;-63
2022/09/22 10:12:29;;;;;;;4.32;1.80;;;;;;;12.53;61.75;97921.38;5068720;28;20814;-65
2022/09/22 10:14:57;;;;;;;8.48;3.15;;;;;;;12.63;62.00;97915.25;5069516;28;20044;-63
2022/09/22 10:17:38;;;;;;;5.53;1.83;;;;;;;12.73;61.67;97915.38;5069131;28;20563;-68
2022/09/22 10:20:28;;;;;;;3.83;2.03;;;;;;;12.85;61.73;97912.50;5063487;28;20037;-64
2022/09/22 10:22:55;;;;;;;4.60;1.75;;;;;;;12.91;60.57;97911.50;5076172;28;20595;-65
2022/09/22 10:25:24;;;;;;;2.67;1.50;;;;;;;13.08;59.37;97916.84;5063586;28;20051;-64
2022/09/22 10:28:08;;;;;;;4.85;1.70;;;;;;;13.01;58.59;97903.47;5061858;28;20044;-64
2022/09/22 10:30:38;;;;;;;3.47;1.48;;;;;;;13.04;56.82;97904.03;5066720;28;20515;-63
2022/09/22 10:33:12;;;;;;;3.10;1.60;;;;;;;13.04;57.75;97909.47;5062993;28;20575;-65
2022/09/22 10:35:40;;;;;;;5.20;1.50;;;;;;;13.05;55.71;97898.31;5066703;28;20058;-64
2022/09/22 10:38:40;;;;;;;3.60;1.40;;;;;;;13.18;56.37;97901.72;5077902;28;20036;-65
2022/09/22 10:41:06;;;;;;;3.13;1.60;;;;;;;13.23;57.72;97904.53;5062900;28;20072;-63
2022/09/22 10:44:13;;;;;;;4.15;1.40;;;;;;;13.34;55.84;97900.81;5069706;28;20040;-64
2022/09/22 10:47:29;;;;;;;2.58;1.30;;;;;;;13.50;55.74;97901.00;5059043;28;20040;-64
2022/09/22 10:49:56;;;;;;;2.45;1.20;;;;;;;13.64;55.03;97885.88;5067634;28;20043;-62
2022/09/22 10:52:34;;;;;;;2.00;0.90;;;;;;;13.57;52.81;97890.72;5064115;28;20045;-64
2022/09/22 10:55:13;;;;;;;2.70;0.95;;;;;;;13.76;53.42;97887.59;5071334;28;20531;-66
2022/09/22 10:57:42;;;;;;;2.90;1.17;;;;;;;13.88;52.83;97881.97;5067742;28;20132;-62
2022/09/22 11:00:20;;;;;;;2.83;1.00;;;;;;;13.78;52.75;97888.16;5062336;28;20041;-65
2022/09/22 11:03:24;;;;;;;3.65;1.15;;;;;;;13.86;52.66;97890.41;5060497;28;20135;-66
2022/09/22 11:15:12;;;;;;;2.93;1.40;;;;;;;13.94;55.12;97888.28;5070015;28;20052;-65
2022/09/22 11:18:17;;;;;;;3.33;1.60;;;;;;;14.00;54.77;97882.59;5064016;28;20040;-64
2022/09/22 11:20:54;;;;;;;4.18;1.60;;;;;;;14.07;54.39;97876.94;5062107;28;20572;-63
2022/09/22 11:23:39;;;;;;;3.05;1.55;;;;;;;14.19;53.27;97876.72;5056181;28;20531;-64
2022/09/22 11:26:20;;;;;;;2.78;1.35;;;;;;;14.27;52.52;97868.06;5065038;28;20534;-62
2022/09/22 11:29:15;;;;;;;;;;;;;;;14.34;52.39;97864.28;5067759;28;20660;-63
2022/09/22 11:31:51;;;;;;;2.50;1.30;;;;;;;14.22;52.08;97854.41;5056253;28;20015;-67
2022/09/22 11:34:35;;;;;;;3.47;1.75;;;;;;;14.33;52.87;97860.75;5065141;28;20044;-62
2022/09/22 11:37:35;;;;;;;2.78;1.38;;;;;;;14.43;52.54;97858.09;5068361;28;20135;-64
2022/09/22 11:40:34;;;;;;;3.85;1.60;;;;;;;14.49;52.42;97858.09;5065954;28;20045;-63
2022/09/22 11:43:30;;;;;;;3.17;1.10;;;;;;;14.52;52.57;97854.84;5078690;28;20557;-63
2022/09/22 11:46:15;;;;;;;2.10;1.13;;;;;;;14.72;51.39;97856.81;5067888;28;20051;-61
2022/09/22 11:48:47;;;;;;;2.35;1.33;;;;;;;14.81;51.18;97857.97;5068694;28;20041;-61
2022/09/22 11:52:00;;;;;;;2.25;1.25;;;;;;;14.64;51.23;97850.00;5070266;28;20046;-64
2022/09/22 11:54:59;;;;;;;3.05;1.27;;;;;;;14.69;52.58;97841.84;5035280;28;20056;-64
2022/09/22 11:57:32;;;;;;;2.05;1.00;;;;;;;14.87;51.21;97844.34;5011220;28;20058;-63
2022/09/22 12:00:04;;;;;;;2.00;1.10;;;;;;;14.97;49.44;97843.56;5059848;28;20036;-65
2022/09/22 12:02:38;;;;;;;2.97;1.40;;;;;;;15.10;49.39;97839.50;5064760;28;20604;-65
2022/09/22 12:05:19;;;;;;;2.22;1.08;;;;;;;15.22;49.32;97837.31;5067384;28;20045;-64
2022/09/22 12:07:58;;;;;;;3.10;1.13;;;;;;;15.23;48.41;97833.53;5065579;28;20066;-63
2022/09/22 12:10:36;;;;;;;2.13;0.80;;;;;;;15.21;49.33;97836.53;5065902;28;20766;-66
2022/09/22 12:13:10;;;;;;;3.50;1.10;;;;;;;15.02;47.14;97827.22;5065944;28;20041;-61
2022/09/22 12:16:01;;;;;;;2.17;0.70;;;;;;;15.10;47.16;97834.06;5061687;28;20147;-65
2022/09/22 12:18:48;;;;;;;1.17;0.75;;;;;;;15.37;47.32;97833.00;5070473;28;20054;-64
2022/09/22 12:21:27;;;;;;;2.08;0.82;;;;;;;15.46;47.72;97823.16;5060558;28;20510;-65